Time;durP1;ratioP1;P1;durP2;ratioP2;P2;SDS_P1;SDS_P2;PMS_P1;PMS_P2;Temp;Humidity;BMP_temperature;BMP_pressure;BME280_temperature;BME280_humidity;BME280_pressure;Samples;Min_cycle;Max_cycle;Signal;HPM_P1;HPM_P2
2022/09/19 00:00:23;;;;;;;23.40;7.72;;;;;;;8.66;100.00;101923.09;5287797;28;20023;-73
2022/09/19 00:02:54;;;;;;;24.17;7.22;;;;;;;8.62;100.00;101918.97;5275710;28;20028;-74
2022/09/19 00:05:24;;;;;;;22.42;8.52;;;;;;;8.58;100.00;101918.38;5286644;28;20019;-73
2022/09/19 00:07:55;;;;;;;22.55;7.40;;;;;;;8.54;100.00;101909.75;5273920;28;20446;-73
2022/09/19 00:10:28;;;;;;;46.10;8.20;;;;;;;8.51;100.00;101912.69;5287542;28;20106;-74
2022/09/19 00:12:58;;;;;;;22.38;7.13;;;;;;;8.53;100.00;101910.75;5287899;28;20114;-73
2022/09/19 00:15:29;;;;;;;21.88;6.75;;;;;;;8.55;100.00;101913.28;5276335;28;20382;-74
2022/09/19 00:17:59;;;;;;;20.85;6.63;;;;;;;8.57;100.00;101909.50;5283320;28;20031;-74
2022/09/19 00:20:30;;;;;;;30.00;7.05;;;;;;;8.59;100.00;101912.06;5266591;28;20023;-74
2022/09/19 00:26:10;;;;;;;20.35;6.82;;;;;;;8.59;100.00;101911.22;5277147;28;20024;-74
2022/09/19 00:28:42;;;;;;;27.58;6.47;;;;;;;8.56;100.00;101915.81;5277689;28;20023;-74
2022/09/19 00:31:17;;;;;;;19.50;5.60;;;;;;;8.57;100.00;101911.31;5286929;28;20015;-74
2022/09/19 00:33:48;;;;;;;16.52;6.90;;;;;;;8.54;100.00;101912.44;5287147;28;20020;-74
2022/09/19 00:36:19;;;;;;;19.58;7.25;;;;;;;8.52;100.00;101922.41;5286814;28;20500;-74
2022/09/19 00:38:50;;;;;;;19.20;5.85;;;;;;;8.48;100.00;101925.44;5287020;28;20028;-74
2022/09/19 00:41:25;;;;;;;13.70;5.05;;;;;;;8.43;100.00;101931.16;5273469;28;20024;-73
2022/09/19 00:43:59;;;;;;;23.13;6.68;;;;;;;8.51;100.00;101931.41;5287028;28;20020;-74
2022/09/19 00:46:33;;;;;;;22.25;5.47;;;;;;;8.46;100.00;101928.25;5286572;28;20510;-74
2022/09/19 00:49:10;;;;;;;16.23;5.47;;;;;;;8.43;100.00;101917.81;5286705;28;20047;-74
2022/09/19 00:51:47;;;;;;;18.55;5.57;;;;;;;8.41;100.00;101918.91;5287144;28;20019;-75
2022/09/19 00:54:23;;;;;;;23.00;6.28;;;;;;;8.39;100.00;101915.53;5275357;28;20059;-74
2022/09/19 00:56:55;;;;;;;20.42;5.72;;;;;;;8.37;100.00;101922.81;5287216;28;20023;-75
2022/09/19 00:59:29;;;;;;;18.55;5.65;;;;;;;8.35;100.00;101925.59;5286578;28;20027;-74
2022/09/19 01:02:04;;;;;;;24.33;6.72;;;;;;;8.32;100.00;101925.81;5287039;28;20023;-74
2022/09/19 01:04:35;;;;;;;24.60;6.40;;;;;;;8.31;100.00;101924.13;5286597;28;20046;-74
2022/09/19 01:07:14;;;;;;;18.73;5.50;;;;;;;8.30;100.00;101919.78;5287066;28;20015;-74
2022/09/19 01:10:37;;;;;;;17.40;5.47;;;;;;;8.30;100.00;101927.78;5272854;28;20433;-73
2022/09/19 01:13:20;;;;;;;21.85;5.65;;;;;;;8.27;100.00;101928.03;5283629;28;20381;-74
2022/09/19 01:16:03;;;;;;;15.93;4.80;;;;;;;8.23;100.00;101927.44;5286138;28;20092;-74
2022/09/19 01:18:43;;;;;;;24.52;5.63;;;;;;;8.22;100.00;101930.22;5286976;28;20034;-75
2022/09/19 01:22:01;;;;;;;19.00;5.80;;;;;;;8.15;100.00;101932.56;5265210;28;20035;-72
2022/09/19 01:25:11;;;;;;;13.55;5.80;;;;;;;8.09;100.00;101926.88;5264897;28;20028;-73
2022/09/19 01:28:06;;;;;;;19.15;5.38;;;;;;;8.04;100.00;101930.75;5286526;28;20034;-72
2022/09/19 01:31:16;;;;;;;10.57;4.78;;;;;;;8.04;100.00;101928.09;5286867;28;20027;-73
2022/09/19 01:34:07;;;;;;;18.30;5.00;;;;;;;8.11;100.00;101935.59;5285495;28;20404;-73
2022/09/19 01:36:46;;;;;;;18.75;5.07;;;;;;;8.20;100.00;101942.88;5287152;28;20437;-74
2022/09/19 01:39:23;;;;;;;21.42;5.45;;;;;;;8.29;100.00;101944.81;5288361;28;20273;-73
2022/09/19 01:41:54;;;;;;;23.83;5.63;;;;;;;8.38;100.00;101948.56;5287601;28;20449;-73
2022/09/19 01:44:27;;;;;;;23.95;5.55;;;;;;;8.46;100.00;101948.81;5285645;28;20068;-72
2022/09/19 01:47:22;;;;;;;19.13;5.28;;;;;;;8.52;100.00;101945.63;5286543;28;20035;-72
2022/09/19 01:50:23;;;;;;;23.60;4.72;;;;;;;8.60;100.00;101945.00;5285900;28;20042;-74
2022/09/19 01:53:06;;;;;;;28.52;5.22;;;;;;;8.67;100.00;101951.53;5278495;28;20020;-74
2022/09/19 01:55:40;;;;;;;20.88;5.32;;;;;;;8.73;100.00;101959.03;5264278;28;20024;-73
2022/09/19 01:58:21;;;;;;;15.30;5.28;;;;;;;8.81;100.00;101961.94;5278654;28;20031;-71
2022/09/19 02:01:02;;;;;;;16.55;4.50;;;;;;;8.86;100.00;101965.09;5285925;28;20489;-72
2022/09/19 02:03:46;;;;;;;28.77;5.13;;;;;;;8.90;100.00;101957.66;5285971;28;20024;-73
2022/09/19 02:06:31;;;;;;;19.98;5.07;;;;;;;8.93;100.00;101954.72;5284870;28;20043;-72
2022/09/19 02:09:08;;;;;;;23.35;4.22;;;;;;;8.96;100.00;101965.16;5282134;28;20036;-73
2022/09/19 02:11:39;;;;;;;18.35;4.35;;;;;;;8.97;100.00;101962.34;5285998;28;20517;-73
2022/09/19 02:14:16;;;;;;;9.00;3.95;;;;;;;9.02;100.00;101965.50;5284756;28;20027;-73
2022/09/19 02:17:09;;;;;;;18.48;5.28;;;;;;;9.06;100.00;101958.06;5285581;28;20043;-73
2022/09/19 02:19:45;;;;;;;21.17;4.68;;;;;;;9.05;100.00;101951.88;5285465;28;20038;-72
2022/09/19 02:22:31;;;;;;;17.05;3.85;;;;;;;9.07;100.00;101957.09;5285926;28;20485;-72
2022/09/19 02:25:06;;;;;;;22.45;4.05;;;;;;;9.05;100.00;101951.88;5284459;28;20132;-72
2022/09/19 02:27:43;;;;;;;13.48;3.45;;;;;;;9.05;100.00;101956.38;5285937;28;20357;-72
2022/09/19 02:30:13;;;;;;;22.42;4.75;;;;;;;9.01;100.00;101963.81;5275142;28;20035;-72
2022/09/19 02:32:47;;;;;;;18.65;3.63;;;;;;;8.99;100.00;101952.38;5283029;28;20492;-73
2022/09/19 02:35:24;;;;;;;25.52;4.25;;;;;;;8.96;100.00;101958.00;5284497;28;20031;-73
2022/09/19 02:38:02;;;;;;;18.85;4.32;;;;;;;8.97;100.00;101966.88;5274492;28;20016;-73
2022/09/19 02:40:47;;;;;;;21.77;4.05;;;;;;;9.00;100.00;101971.97;5279781;28;20027;-73
2022/09/19 02:43:28;;;;;;;14.40;3.78;;;;;;;9.05;100.00;101969.75;5279809;28;20020;-73
2022/09/19 02:46:06;;;;;;;15.07;4.05;;;;;;;9.11;100.00;101971.06;5284826;28;20040;-73
2022/09/19 02:49:13;;;;;;;21.35;4.82;;;;;;;9.15;100.00;101967.16;5287215;28;20039;-73
2022/09/19 02:51:46;;;;;;;;;;;;;;;9.21;100.00;101963.94;5285471;28;20036;-73
2022/09/19 02:54:23;;;;;;;19.17;4.03;;;;;;;9.25;100.00;101960.03;5288573;28;20369;-73
2022/09/19 02:56:59;;;;;;;23.75;3.80;;;;;;;9.27;100.00;101960.75;5284036;28;20416;-73
2022/09/19 02:59:35;;;;;;;11.98;3.53;;;;;;;9.26;100.00;101959.06;5282000;28;20495;-73
2022/09/19 03:02:16;;;;;;;21.67;4.13;;;;;;;9.26;100.00;101961.72;5289124;28;20034;-73
2022/09/19 03:04:53;;;;;;;24.55;3.97;;;;;;;9.26;100.00;101959.06;5288010;28;20444;-73
2022/09/19 03:07:47;;;;;;;19.60;3.75;;;;;;;9.23;100.00;101970.84;5289197;28;20516;-73
2022/09/19 03:10:22;;;;;;;18.75;4.03;;;;;;;9.20;100.00;101963.09;5286809;28;20023;-73
2022/09/19 03:12:57;;;;;;;15.65;3.78;;;;;;;9.15;100.00;101962.66;5275110;28;20020;-73
2022/09/19 03:15:36;;;;;;;28.40;4.65;;;;;;;9.15;100.00;101965.31;5278384;28;20038;-73
2022/09/19 03:18:10;;;;;;;18.13;4.32;;;;;;;9.13;100.00;101961.91;5288996;28;20460;-73
2022/09/19 03:20:47;;;;;;;23.97;5.03;;;;;;;9.15;100.00;101962.66;5275118;28;20024;-73
2022/09/19 03:23:23;;;;;;;21.67;5.40;;;;;;;9.16;100.00;101964.34;5288795;28;20032;-73
2022/09/19 03:25:54;;;;;;;17.63;4.25;;;;;;;9.15;100.00;101969.84;5288242;28;20031;-73
2022/09/19 03:28:24;;;;;;;21.13;5.55;;;;;;;9.14;100.00;101963.63;5281400;28;20496;-72
2022/09/19 03:30:59;;;;;;;17.75;4.15;;;;;;;9.13;100.00;101956.56;5286751;28;20024;-72
2022/09/19 03:33:29;;;;;;;23.20;5.10;;;;;;;9.11;100.00;101958.53;5289782;28;20103;-72
2022/09/19 03:36:07;;;;;;;17.52;4.82;;;;;;;9.08;100.00;101970.31;5282448;28;20166;-72
2022/09/19 03:41:25;;;;;;;25.38;5.80;;;;;;;8.95;100.00;101964.31;5289166;28;20069;-73
2022/09/19 03:44:01;;;;;;;20.65;4.93;;;;;;;8.91;100.00;101965.56;5288743;28;20477;-73
2022/09/19 03:46:32;;;;;;;15.70;5.25;;;;;;;8.84;100.00;101961.69;5287726;28;20396;-73
2022/09/19 03:49:03;;;;;;;13.38;5.05;;;;;;;8.78;100.00;101967.53;5287975;28;20030;-73
2022/09/19 03:51:34;;;;;;;15.02;4.95;;;;;;;8.72;100.00;101965.38;5278453;28;20599;-73
2022/09/19 03:54:05;;;;;;;31.48;5.88;;;;;;;8.66;100.00;101961.38;5284495;28;20111;-73
2022/09/19 03:56:35;;;;;;;24.20;5.15;;;;;;;8.59;100.00;101962.88;5287862;28;20035;-73
2022/09/19 03:59:06;;;;;;;25.17;5.47;;;;;;;8.53;100.00;101964.25;5282543;28;20530;-73
2022/09/19 04:01:36;;;;;;;29.05;5.45;;;;;;;8.47;100.00;101962.03;5279425;28;20107;-73
2022/09/19 04:04:07;;;;;;;20.35;5.68;;;;;;;8.44;100.00;101975.69;5287348;28;20028;-73
2022/09/19 04:06:38;;;;;;;20.98;5.90;;;;;;;8.41;100.00;101970.56;5286645;28;20118;-73
2022/09/19 04:09:08;;;;;;;18.30;6.20;;;;;;;8.40;100.00;101976.91;5287419;28;20095;-72
2022/09/19 04:11:41;;;;;;;23.58;5.25;;;;;;;8.40;100.00;101978.72;5287670;28;20008;-73
2022/09/19 04:14:12;;;;;;;23.15;5.70;;;;;;;8.42;100.00;101977.63;5287017;28;20028;-73
2022/09/19 04:16:43;;;;;;;19.42;5.95;;;;;;;8.45;100.00;101974.69;5288501;28;20065;-75
2022/09/19 04:19:14;;;;;;;25.02;6.05;;;;;;;8.49;100.00;101972.63;5284974;28;20431;-75
2022/09/19 04:21:44;;;;;;;27.75;5.68;;;;;;;8.45;100.00;101972.03;5287405;28;20023;-74
2022/09/19 04:24:15;;;;;;;25.30;4.93;;;;;;;8.42;100.00;101982.13;5287064;28;20160;-74
2022/09/19 04:26:46;;;;;;;20.38;6.47;;;;;;;8.39;100.00;101985.06;5287768;28;20028;-74
2022/09/19 04:29:19;;;;;;;21.20;5.40;;;;;;;8.33;100.00;101981.00;5287672;28;20102;-74
2022/09/19 04:31:50;;;;;;;24.20;5.32;;;;;;;8.27;100.00;101989.53;5287377;28;20022;-73
2022/09/19 04:34:20;;;;;;;24.73;5.80;;;;;;;8.21;100.00;101995.38;5286377;28;20529;-74
2022/09/19 04:36:51;;;;;;;24.98;5.38;;;;;;;8.15;100.00;101985.16;5273797;28;20110;-74
2022/09/19 04:39:22;;;;;;;18.20;5.55;;;;;;;8.10;100.00;101990.03;5283170;28;20031;-74
2022/09/19 04:41:53;;;;;;;26.25;6.75;;;;;;;8.16;100.00;101986.88;5287050;28;20081;-74
2022/09/19 04:44:28;;;;;;;17.33;6.28;;;;;;;8.05;100.00;101987.72;5286407;28;20024;-73
2022/09/19 04:46:59;;;;;;;18.95;5.45;;;;;;;7.98;100.00;101992.72;5287110;28;20040;-74
2022/09/19 04:49:34;;;;;;;24.30;4.85;;;;;;;7.93;100.00;101991.34;5287148;28;20589;-74
2022/09/19 04:52:10;;;;;;;22.52;5.78;;;;;;;7.91;100.00;101990.63;5277956;28;20409;-74
2022/09/19 04:54:41;;;;;;;17.67;5.38;;;;;;;7.86;100.00;101992.81;5286339;28;20041;-74
2022/09/19 04:57:11;;;;;;;26.88;5.35;;;;;;;7.84;100.00;101995.63;5286654;28;20027;-74
2022/09/19 04:59:42;;;;;;;28.75;5.70;;;;;;;7.82;100.00;101997.53;5283662;28;20028;-73
2022/09/19 05:02:12;;;;;;;26.30;5.85;;;;;;;7.91;100.00;101995.97;5276860;28;20020;-73
2022/09/19 05:04:44;;;;;;;19.02;6.20;;;;;;;7.90;100.00;102004.97;5286426;28;20031;-72
2022/09/19 05:07:15;;;;;;;23.17;6.05;;;;;;;7.91;100.00;102004.00;5286336;28;20273;-71
2022/09/19 05:09:45;;;;;;;22.73;6.20;;;;;;;7.79;100.00;102013.84;5285973;28;20473;-73
2022/09/19 05:12:16;;;;;;;25.45;5.93;;;;;;;7.75;100.00;102007.88;5286176;28;20051;-73
2022/09/19 05:14:46;;;;;;;33.03;6.72;;;;;;;7.73;100.00;102012.50;5285976;28;20425;-73
2022/09/19 05:17:17;;;;;;;15.20;5.18;;;;;;;7.71;100.00;102011.75;5287009;28;20039;-72
2022/09/19 05:19:47;;;;;;;19.27;4.80;;;;;;;7.71;100.00;102013.56;5286819;28;20051;-73
2022/09/19 05:22:18;;;;;;;15.63;5.53;;;;;;;7.72;100.00;102020.59;5283943;28;20020;-72
2022/09/19 05:24:48;;;;;;;24.90;5.90;;;;;;;7.75;100.00;102020.38;5263520;28;20027;-72
2022/09/19 05:27:21;;;;;;;41.90;7.43;;;;;;;7.77;100.00;102023.78;5286520;28;20097;-72
2022/09/19 05:29:52;;;;;;;26.35;6.55;;;;;;;7.82;100.00;102024.25;5286453;28;20036;-73
2022/09/19 05:32:22;;;;;;;22.77;6.40;;;;;;;7.86;100.00;102022.22;5286351;28;20032;-72
2022/09/19 05:34:56;;;;;;;22.02;6.28;;;;;;;7.91;100.00;102023.53;5285386;28;20202;-74
2022/09/19 05:37:27;;;;;;;18.38;6.47;;;;;;;7.98;100.00;102027.47;5286355;28;20051;-72
2022/09/19 05:39:58;;;;;;;22.73;6.03;;;;;;;8.04;100.00;102031.47;5285932;28;20055;-72
2022/09/19 05:42:29;;;;;;;18.08;6.35;;;;;;;8.13;100.00;102029.88;5286326;28;20526;-72
2022/09/19 05:44:59;;;;;;;18.77;6.03;;;;;;;8.19;100.00;102029.41;5285494;28;20106;-72
2022/09/19 05:47:29;;;;;;;22.95;5.30;;;;;;;8.27;100.00;102032.28;5286362;28;20031;-73
2022/09/19 05:50:00;;;;;;;23.92;5.75;;;;;;;8.32;100.00;102028.28;5279443;28;20024;-72
2022/09/19 05:55:19;;;;;;;23.77;5.70;;;;;;;8.43;100.00;102037.28;5285333;28;20023;-72
2022/09/19 05:57:51;;;;;;;23.48;6.13;;;;;;;8.45;100.00;102035.38;5267587;28;20096;-73
2022/09/19 06:00:26;;;;;;;30.73;6.25;;;;;;;8.45;100.00;102038.03;5277391;28;20106;-71
2022/09/19 06:03:00;;;;;;;20.25;5.07;;;;;;;8.44;100.00;102039.88;5272209;28;20112;-72
2022/09/19 06:05:38;;;;;;;25.48;6.00;;;;;;;8.46;100.00;102031.72;5285276;28;20072;-72
2022/09/19 06:08:09;;;;;;;27.52;6.68;;;;;;;8.46;100.00;102037.91;5285897;28;20385;-73
2022/09/19 06:10:42;;;;;;;30.05;9.07;;;;;;;8.50;100.00;102039.38;5282211;28;20038;-73
2022/09/19 06:14:13;;;;;;;19.40;7.68;;;;;;;8.52;100.00;102049.94;5286231;28;20068;-72
2022/09/19 06:16:20;;;;;;;31.60;8.93;;;;;;;8.61;100.00;102043.00;5284940;28;20028;-72
2022/09/19 06:18:51;;;;;;;28.08;10.07;;;;;;;8.69;100.00;102044.09;5272237;28;20027;-72
2022/09/19 06:21:21;;;;;;;23.75;7.85;;;;;;;8.76;100.00;102044.41;5266383;28;20028;-73
2022/09/19 06:23:52;;;;;;;32.45;8.00;;;;;;;8.89;100.00;102053.16;5289367;28;20038;-71
2022/09/19 06:26:22;;;;;;;17.85;5.47;;;;;;;8.95;100.00;102055.31;5289854;28;20023;-73
2022/09/19 06:28:53;;;;;;;26.17;6.72;;;;;;;9.01;100.00;102060.16;5289523;28;20024;-72
2022/09/19 06:31:24;;;;;;;30.75;6.53;;;;;;;9.09;100.00;102072.94;5289896;28;20504;-73
2022/09/19 06:33:55;;;;;;;20.48;5.50;;;;;;;9.12;100.00;102064.63;5289485;28;20405;-71
2022/09/19 06:36:25;;;;;;;32.08;6.68;;;;;;;9.12;100.00;102069.13;5289117;28;20038;-72
2022/09/19 06:38:56;;;;;;;25.30;5.15;;;;;;;9.20;100.00;102070.22;5278841;28;20019;-72
2022/09/19 06:41:27;;;;;;;15.35;4.50;;;;;;;9.29;100.00;102071.28;5288128;28;20361;-71
2022/09/19 06:43:57;;;;;;;27.23;6.18;;;;;;;9.32;100.00;102079.88;5289731;28;20031;-72
2022/09/19 06:46:30;;;;;;;22.65;5.82;;;;;;;9.36;100.00;102072.44;5288768;28;20088;-72
2022/09/19 06:49:01;;;;;;;14.70;3.70;;;;;;;9.36;100.00;102075.13;5290104;28;20484;-72
2022/09/19 06:51:32;;;;;;;30.33;5.20;;;;;;;9.38;100.00;102089.22;5290000;28;20015;-71
2022/09/19 06:54:03;;;;;;;23.73;4.82;;;;;;;9.38;100.00;102091.06;5274298;28;20049;-72
2022/09/19 06:56:33;;;;;;;22.40;4.93;;;;;;;9.34;100.00;102094.00;5269481;28;20538;-71
2022/09/19 06:59:04;;;;;;;20.63;4.65;;;;;;;9.38;100.00;102102.63;5289420;28;20019;-72
2022/09/19 07:01:34;;;;;;;15.90;4.80;;;;;;;9.86;100.00;102099.47;5281553;28;20500;-72
2022/09/19 07:04:05;;;;;;;15.15;4.80;;;;;;;10.75;100.00;102102.47;5275692;28;20347;-72
2022/09/19 07:06:35;;;;;;;23.73;5.88;;;;;;;11.54;100.00;102095.19;5256513;28;20027;-72
2022/09/19 07:09:07;;;;;;;25.58;4.47;;;;;;;12.19;100.00;102095.41;5281166;28;20028;-72
2022/09/19 07:11:38;;;;;;;13.13;2.90;;;;;;;12.54;100.00;102099.25;5281567;28;20094;-72
2022/09/19 07:14:10;;;;;;;19.98;3.83;;;;;;;12.96;100.00;102097.75;5278979;28;20107;-73
2022/09/19 07:16:40;;;;;;;11.07;2.65;;;;;;;13.34;100.00;102101.19;5274066;28;20056;-72
2022/09/19 07:19:11;;;;;;;13.23;2.92;;;;;;;13.52;100.00;102094.97;5279674;28;20058;-72
2022/09/19 07:21:41;;;;;;;13.48;2.90;;;;;;;14.15;100.00;102103.66;5275558;28;20058;-72
2022/09/19 07:24:12;;;;;;;14.75;2.90;;;;;;;14.38;100.00;102095.03;5277214;28;20481;-72
2022/09/19 07:26:43;;;;;;;14.98;3.00;;;;;;;14.82;100.00;102103.03;5276646;28;20389;-72
2022/09/19 07:29:13;;;;;;;14.57;2.45;;;;;;;15.48;100.00;102102.16;5276845;28;20025;-72
2022/09/19 07:31:46;;;;;;;10.40;2.70;;;;;;;15.79;100.00;102099.66;5260522;28;20041;-72
2022/09/19 07:34:16;;;;;;;11.35;2.70;;;;;;;15.49;100.00;102101.13;5284006;28;20484;-72
2022/09/19 07:36:47;;;;;;;12.82;3.25;;;;;;;15.13;100.00;102106.84;5286401;28;20076;-72
2022/09/19 07:39:18;;;;;;;8.95;2.40;;;;;;;14.71;100.00;102106.88;5286119;28;20461;-72
2022/09/19 07:41:48;;;;;;;13.27;2.95;;;;;;;14.44;100.00;102107.88;5286891;28;20023;-72
2022/09/19 07:44:19;;;;;;;8.52;2.55;;;;;;;14.08;100.00;102104.47;5281995;28;20792;-72
2022/09/19 07:49:39;;;;;;;13.25;2.42;;;;;;;13.76;100.00;102108.66;5284488;28;20545;-72
2022/09/19 07:52:10;;;;;;;7.82;2.60;;;;;;;13.73;100.00;102119.72;5283752;28;20241;-72
2022/09/19 07:54:40;;;;;;;9.02;2.75;;;;;;;13.78;100.00;102119.28;5281571;28;20038;-72
2022/09/19 07:57:10;;;;;;;13.05;2.78;;;;;;;13.84;100.00;102116.78;5282742;28;20433;-72
2022/09/19 07:59:41;;;;;;;16.98;2.75;;;;;;;14.00;100.00;102126.84;5283060;28;20023;-71
2022/09/19 08:02:11;;;;;;;13.98;2.47;;;;;;;14.07;100.00;102130.63;5283140;28;20055;-71
2022/09/19 08:04:42;;;;;;;15.13;3.33;;;;;;;14.16;100.00;102128.84;5280750;28;20479;-71
2022/09/19 08:07:13;;;;;;;15.02;2.40;;;;;;;14.34;100.00;102140.41;5282745;28;20031;-71
2022/09/19 08:09:43;;;;;;;13.13;3.15;;;;;;;14.47;100.00;102150.78;5282483;28;20634;-71
2022/09/19 08:12:14;;;;;;;12.25;2.97;;;;;;;14.49;100.00;102146.94;5282345;28;20060;-72
2022/09/19 08:14:44;;;;;;;9.30;3.35;;;;;;;14.58;100.00;102150.53;5281118;28;20350;-71
2022/09/19 08:17:15;;;;;;;11.65;2.60;;;;;;;14.69;100.00;102158.34;5282402;28;20111;-71
2022/09/19 08:19:45;;;;;;;8.98;2.13;;;;;;;14.76;100.00;102154.00;5281373;28;20046;-71
2022/09/19 08:22:16;;;;;;;13.32;2.83;;;;;;;15.17;100.00;102166.81;5281720;28;20081;-71
2022/09/19 08:24:46;;;;;;;15.27;2.58;;;;;;;15.13;100.00;102160.91;5280234;28;20392;-71
2022/09/19 08:27:17;;;;;;;7.25;1.90;;;;;;;15.18;100.00;102166.66;5281976;28;20028;-71
2022/09/19 08:29:48;;;;;;;15.13;2.53;;;;;;;15.15;100.00;102169.66;5263632;28;20063;-71
2022/09/19 08:32:18;;;;;;;17.60;3.25;;;;;;;15.01;100.00;102170.31;5282798;28;20484;-71
2022/09/19 08:34:49;;;;;;;7.15;2.30;;;;;;;14.92;100.00;102171.28;5280488;28;20112;-72
2022/09/19 08:37:19;;;;;;;15.52;2.58;;;;;;;15.14;100.00;102167.13;5282392;28;20325;-72
2022/09/19 08:40:15;;;;;;;14.95;2.40;;;;;;;15.47;100.00;102166.22;5281784;28;20099;-72
2022/09/19 08:43:00;;;;;;;15.82;2.92;;;;;;;15.74;100.00;102170.50;5281775;28;20608;-71
2022/09/19 08:45:40;;;;;;;21.33;3.25;;;;;;;16.03;100.00;102178.13;5281592;28;20031;-71
2022/09/19 08:48:20;;;;;;;17.48;2.35;;;;;;;16.19;100.00;102179.13;5281474;28;20062;-71
2022/09/19 08:51:00;;;;;;;7.38;2.08;;;;;;;16.31;100.00;102173.19;5281897;28;20026;-71
2022/09/19 08:53:36;;;;;;;15.20;2.63;;;;;;;16.36;100.00;102174.53;5281901;28;20061;-71
2022/09/19 08:56:08;;;;;;;13.60;2.35;;;;;;;16.32;100.00;102176.75;5281606;28;20032;-71
2022/09/19 08:58:47;;;;;;;14.30;2.58;;;;;;;16.30;100.00;102173.34;5281858;28;20019;-71
2022/09/19 09:01:19;;;;;;;15.68;3.03;;;;;;;16.47;100.00;102176.88;5282382;28;20031;-71
2022/09/19 09:04:19;;;;;;;8.60;2.45;;;;;;;16.51;100.00;102181.75;5281099;28;20156;-72
2022/09/19 09:07:13;;;;;;;12.00;2.33;;;;;;;16.33;100.00;102174.88;5282623;28;20027;-71
2022/09/19 09:09:54;;;;;;;12.65;1.80;;;;;;;16.43;100.00;102180.97;5282048;28;20362;-71
2022/09/19 09:12:49;;;;;;;8.88;1.83;;;;;;;16.81;100.00;102182.88;5282036;28;20035;-71
2022/09/19 09:15:29;;;;;;;11.15;2.00;;;;;;;16.85;100.00;102179.84;5281070;28;20034;-71
2022/09/19 09:18:35;;;;;;;10.88;2.05;;;;;;;17.13;100.00;102186.50;5282570;28;20161;-71
2022/09/19 09:21:29;;;;;;;11.45;2.17;;;;;;;17.09;100.00;102183.28;5282063;28;20047;-71
2022/09/19 09:24:09;;;;;;;10.90;1.85;;;;;;;17.04;100.00;102182.97;5280566;28;20035;-71
2022/09/19 09:26:43;;;;;;;12.88;2.70;;;;;;;16.96;100.00;102179.44;5282901;28;20076;-71
2022/09/19 09:29:45;;;;;;;18.00;2.90;;;;;;;16.94;100.00;102186.94;5282405;28;20485;-71
2022/09/19 09:32:35;;;;;;;9.57;2.00;;;;;;;16.79;100.00;102181.38;5263090;28;20059;-71
2022/09/19 09:35:14;;;;;;;9.48;1.88;;;;;;;16.69;100.00;102188.84;5281343;28;20051;-71
2022/09/19 09:37:56;;;;;;;9.57;1.88;;;;;;;16.66;100.00;102181.91;5283126;28;20023;-71
2022/09/19 09:43:45;;;;;;;;;;;;;;;16.80;100.00;102183.91;5281917;28;20039;-71
2022/09/19 09:46:29;;;;;;;8.15;1.48;;;;;;;17.12;100.00;102197.50;5281191;28;19947;-71
2022/09/19 09:49:01;;;;;;;12.38;1.50;;;;;;;17.23;100.00;102184.41;5280969;28;20020;-71
2022/09/19 09:51:54;;;;;;;7.97;1.77;;;;;;;17.31;100.00;102181.63;5281244;28;20015;-71
2022/09/19 09:57:54;;;;;;;10.10;1.50;;;;;;;17.47;100.00;102179.84;5281998;28;20054;-72
2022/09/19 10:03:35;;;;;;;14.95;1.67;;;;;;;17.59;100.00;102183.84;5284029;28;20544;-72
2022/09/19 10:06:09;;;;;;;8.63;1.60;;;;;;;17.38;100.00;102187.22;5283370;28;20521;-72
2022/09/19 10:09:01;;;;;;;10.02;1.67;;;;;;;17.28;100.00;102184.72;5284779;28;20043;-72
2022/09/19 10:11:51;;;;;;;8.35;1.40;;;;;;;17.22;100.00;102187.28;5285074;28;20031;-72
2022/09/19 10:14:25;;;;;;;9.93;1.50;;;;;;;17.44;100.00;102186.50;5283089;28;20024;-72
2022/09/19 10:17:17;;;;;;;9.75;1.42;;;;;;;17.61;100.00;102190.78;5285731;28;20042;-72
2022/09/19 10:19:52;;;;;;;11.70;1.70;;;;;;;17.67;100.00;102186.53;5284934;28;20024;-72
2022/09/19 10:22:23;;;;;;;15.50;2.10;;;;;;;17.56;100.00;102185.03;5284715;28;20019;-72
2022/09/19 10:24:59;;;;;;;13.07;2.20;;;;;;;17.70;100.00;102182.59;5284004;28;20027;-72
2022/09/19 10:27:31;;;;;;;13.30;1.85;;;;;;;17.83;100.00;102180.16;5285222;28;20583;-72
2022/09/19 10:30:15;;;;;;;10.70;1.27;;;;;;;17.90;100.00;102182.97;5285176;28;20520;-72
2022/09/19 10:32:47;;;;;;;5.13;1.50;;;;;;;18.16;100.00;102177.16;5283335;28;20024;-72
2022/09/19 10:35:38;;;;;;;15.32;1.95;;;;;;;18.08;100.00;102169.94;5282123;28;20024;-72
2022/09/19 10:38:13;;;;;;;12.73;1.45;;;;;;;18.19;100.00;102177.63;5285288;28;20028;-72
2022/09/19 10:43:46;;;;;;;8.27;1.35;;;;;;;18.94;100.00;102176.66;5284206;28;19964;-72
2022/09/19 10:46:21;;;;;;;12.68;1.80;;;;;;;18.99;100.00;102178.81;5283611;28;20032;-72
2022/09/19 10:48:56;;;;;;;8.27;1.55;;;;;;;18.82;100.00;102176.28;5284084;28;20146;-72
2022/09/19 10:51:34;;;;;;;6.78;1.50;;;;;;;18.98;100.00;102175.25;5283948;28;20176;-72
2022/09/19 10:54:11;;;;;;;9.05;1.77;;;;;;;18.90;100.00;102178.06;5283409;28;20488;-72
2022/09/19 10:56:41;;;;;;;11.60;1.88;;;;;;;18.52;100.00;102167.25;5281804;28;20081;-72
2022/09/19 10:59:12;;;;;;;9.52;1.38;;;;;;;18.19;100.00;102172.19;5284745;28;20035;-72
2022/09/19 11:02:15;;;;;;;9.65;1.60;;;;;;;17.84;100.00;102169.09;5283577;28;20051;-72
2022/09/19 11:05:13;;;;;;;10.88;1.45;;;;;;;17.47;100.00;102171.72;5282446;28;20092;-71
2022/09/19 11:07:50;;;;;;;8.02;1.40;;;;;;;17.22;100.00;102171.00;5283477;28;20134;-71
2022/09/19 11:10:33;;;;;;;10.00;1.60;;;;;;;17.03;100.00;102175.03;5282810;28;20032;-72
2022/09/19 11:13:22;;;;;;;9.30;1.73;;;;;;;16.95;100.00;102180.47;5282826;28;20126;-72
2022/09/19 11:16:19;;;;;;;8.13;1.40;;;;;;;16.88;100.00;102179.50;5282799;28;20516;-72
2022/09/19 11:19:08;;;;;;;11.30;1.98;;;;;;;16.78;100.00;102175.13;5283425;28;20082;-72
2022/09/19 11:21:55;;;;;;;7.55;1.65;;;;;;;16.62;100.00;102171.56;5283730;28;20110;-71
2022/09/19 11:25:03;;;;;;;9.52;1.50;;;;;;;16.47;100.00;102171.47;5283071;28;20323;-72
2022/09/19 11:27:48;;;;;;;12.52;1.65;;;;;;;16.44;100.00;102172.66;5282971;28;20304;-72
2022/09/19 11:30:23;;;;;;;11.13;1.50;;;;;;;16.36;100.00;102164.53;5282989;28;20020;-72
2022/09/19 11:33:26;;;;;;;13.20;1.60;;;;;;;16.58;100.00;102176.50;5283229;28;20367;-72
2022/09/19 11:36:07;;;;;;;11.73;2.33;;;;;;;16.96;100.00;102169.44;5283029;28;20027;-72
2022/09/19 11:38:44;;;;;;;12.50;1.88;;;;;;;17.37;100.00;102157.53;5283200;28;20115;-72
2022/09/19 11:41:47;;;;;;;8.45;1.70;;;;;;;17.63;100.00;102157.22;5282446;28;20112;-72
2022/09/19 11:44:39;;;;;;;9.88;1.92;;;;;;;17.95;100.00;102162.41;5281963;28;20027;-72
2022/09/19 11:47:34;;;;;;;16.98;1.92;;;;;;;17.76;100.00;102161.03;5282788;28;20023;-72
2022/09/19 11:50:16;;;;;;;7.78;1.73;;;;;;;17.32;100.00;102169.78;5283284;28;20051;-72
2022/09/19 11:53:17;;;;;;;7.30;1.48;;;;;;;17.07;100.00;102176.38;5283614;28;20419;-72
2022/09/19 11:55:56;;;;;;;9.43;2.10;;;;;;;16.81;100.00;102169.34;5283782;28;20030;-72
2022/09/19 11:58:46;;;;;;;14.88;6.88;;;;;;;16.62;100.00;102161.59;5283720;28;20035;-72
2022/09/19 12:01:44;;;;;;;21.30;11.98;;;;;;;16.49;100.00;102164.00;5281126;28;20031;-72
2022/09/19 12:04:32;;;;;;;18.20;7.22;;;;;;;16.21;100.00;102160.84;5280057;28;20031;-72
2022/09/19 12:07:25;;;;;;;10.80;3.55;;;;;;;16.00;100.00;102161.38;5282911;28;20023;-72
2022/09/19 12:09:55;;;;;;;27.35;13.30;;;;;;;15.95;100.00;102164.56;5282344;28;21023;-72
2022/09/19 12:12:31;;;;;;;22.70;15.68;;;;;;;15.85;100.00;102166.59;5281665;28;20035;-71
2022/09/19 12:15:22;;;;;;;18.88;9.70;;;;;;;15.79;100.00;102160.03;5282414;28;20028;-71
2022/09/19 12:18:10;;;;;;;13.77;4.60;;;;;;;15.75;100.00;102158.66;5282097;28;20015;-72
2022/09/19 12:20:45;;;;;;;9.32;2.88;;;;;;;15.85;100.00;102163.91;5282362;28;20433;-72
2022/09/19 12:26:26;;;;;;;12.27;2.10;;;;;;;16.79;100.00;102155.13;5281508;28;20578;-72